sensor_id;sensor_type;location;lat;lon;timestamp;P1;durP1;ratioP1;P2;durP2;ratioP2
19585;SDS011;9939;49.246;9.106;2024-03-22T00:01:52;11.03;;;6.90;;
19585;SDS011;9939;49.246;9.106;2024-03-22T00:04:19;11.97;;;7.40;;
19585;SDS011;9939;49.246;9.106;2024-03-22T00:06:46;11.43;;;7.37;;
19585;SDS011;9939;49.246;9.106;2024-03-22T00:09:14;12.83;;;7.37;;
19585;SDS011;9939;49.246;9.106;2024-03-22T00:11:40;12.37;;;6.47;;
19585;SDS011;9939;49.246;9.106;2024-03-22T00:14:07;14.30;;;6.97;;
19585;SDS011;9939;49.246;9.106;2024-03-22T00:16:33;11.23;;;6.33;;
19585;SDS011;9939;49.246;9.106;2024-03-22T00:19:00;10.97;;;5.40;;
19585;SDS011;9939;49.246;9.106;2024-03-22T00:21:27;11.23;;;5.57;;
19585;SDS011;9939;49.246;9.106;2024-03-22T00:23:53;9.73;;;4.67;;
19585;SDS011;9939;49.246;9.106;2024-03-22T00:26:19;9.50;;;5.93;;
19585;SDS011;9939;49.246;9.106;2024-03-22T00:28:45;10.73;;;5.20;;
19585;SDS011;9939;49.246;9.106;2024-03-22T00:31:12;8.40;;;5.17;;
19585;SDS011;9939;49.246;9.106;2024-03-22T00:33:38;11.03;;;5.83;;
19585;SDS011;9939;49.246;9.106;2024-03-22T00:36:04;9.53;;;5.37;;
19585;SDS011;9939;49.246;9.106;2024-03-22T00:38:32;9.40;;;5.23;;
19585;SDS011;9939;49.246;9.106;2024-03-22T00:40:58;10.40;;;4.97;;
19585;SDS011;9939;49.246;9.106;2024-03-22T00:43:24;9.50;;;5.63;;
19585;SDS011;9939;49.246;9.106;2024-03-22T00:45:50;9.47;;;5.50;;
19585;SDS011;9939;49.246;9.106;2024-03-22T00:48:16;12.97;;;6.10;;
19585;SDS011;9939;49.246;9.106;2024-03-22T00:50:43;11.43;;;5.60;;
19585;SDS011;9939;49.246;9.106;2024-03-22T00:53:09;10.70;;;5.70;;
19585;SDS011;9939;49.246;9.106;2024-03-22T00:55:35;12.57;;;6.00;;
19585;SDS011;9939;49.246;9.106;2024-03-22T00:58:01;10.03;;;5.97;;
19585;SDS011;9939;49.246;9.106;2024-03-22T01:00:27;9.77;;;6.03;;
19585;SDS011;9939;49.246;9.106;2024-03-22T01:02:53;11.50;;;6.03;;
19585;SDS011;9939;49.246;9.106;2024-03-22T01:05:19;13.53;;;5.83;;
19585;SDS011;9939;49.246;9.106;2024-03-22T01:07:45;10.87;;;6.70;;
19585;SDS011;9939;49.246;9.106;2024-03-22T01:10:12;12.60;;;6.10;;
19585;SDS011;9939;49.246;9.106;2024-03-22T01:12:38;11.20;;;6.27;;
19585;SDS011;9939;49.246;9.106;2024-03-22T01:15:05;12.63;;;6.47;;
19585;SDS011;9939;49.246;9.106;2024-03-22T01:17:32;12.30;;;6.80;;
19585;SDS011;9939;49.246;9.106;2024-03-22T01:19:59;11.97;;;6.47;;
19585;SDS011;9939;49.246;9.106;2024-03-22T01:22:25;10.53;;;6.50;;
19585;SDS011;9939;49.246;9.106;2024-03-22T01:24:51;10.67;;;5.63;;
19585;SDS011;9939;49.246;9.106;2024-03-22T01:27:17;11.93;;;6.37;;
19585;SDS011;9939;49.246;9.106;2024-03-22T01:29:43;12.50;;;6.73;;
19585;SDS011;9939;49.246;9.106;2024-03-22T01:32:09;12.10;;;6.17;;
19585;SDS011;9939;49.246;9.106;2024-03-22T01:34:35;11.27;;;6.27;;
19585;SDS011;9939;49.246;9.106;2024-03-22T01:37:01;12.23;;;6.50;;
19585;SDS011;9939;49.246;9.106;2024-03-22T01:39:28;12.30;;;6.30;;
19585;SDS011;9939;49.246;9.106;2024-03-22T01:41:54;11.03;;;6.03;;
19585;SDS011;9939;49.246;9.106;2024-03-22T01:44:26;9.53;;;5.60;;
19585;SDS011;9939;49.246;9.106;2024-03-22T01:46:53;10.93;;;6.70;;
19585;SDS011;9939;49.246;9.106;2024-03-22T01:49:19;15.17;;;7.00;;
19585;SDS011;9939;49.246;9.106;2024-03-22T01:51:46;10.97;;;6.27;;
19585;SDS011;9939;49.246;9.106;2024-03-22T01:54:12;12.33;;;6.53;;
19585;SDS011;9939;49.246;9.106;2024-03-22T01:56:38;13.60;;;6.77;;
19585;SDS011;9939;49.246;9.106;2024-03-22T01:59:05;12.87;;;7.10;;
19585;SDS011;9939;49.246;9.106;2024-03-22T02:01:32;14.53;;;7.57;;
19585;SDS011;9939;49.246;9.106;2024-03-22T02:03:58;17.20;;;7.27;;
19585;SDS011;9939;49.246;9.106;2024-03-22T02:06:24;14.23;;;7.00;;
19585;SDS011;9939;49.246;9.106;2024-03-22T02:08:50;12.27;;;7.40;;
19585;SDS011;9939;49.246;9.106;2024-03-22T02:11:16;13.00;;;7.10;;
19585;SDS011;9939;49.246;9.106;2024-03-22T02:13:42;13.97;;;7.70;;
19585;SDS011;9939;49.246;9.106;2024-03-22T02:16:08;12.80;;;7.30;;
19585;SDS011;9939;49.246;9.106;2024-03-22T02:18:35;13.47;;;7.60;;
19585;SDS011;9939;49.246;9.106;2024-03-22T02:21:01;13.80;;;7.80;;
19585;SDS011;9939;49.246;9.106;2024-03-22T02:23:39;12.97;;;7.40;;
19585;SDS011;9939;49.246;9.106;2024-03-22T02:26:06;13.40;;;7.57;;
19585;SDS011;9939;49.246;9.106;2024-03-22T02:28:33;14.73;;;7.73;;
19585;SDS011;9939;49.246;9.106;2024-03-22T02:31:04;14.87;;;7.90;;
19585;SDS011;9939;49.246;9.106;2024-03-22T02:33:30;14.17;;;7.23;;
19585;SDS011;9939;49.246;9.106;2024-03-22T02:35:56;14.50;;;8.50;;
19585;SDS011;9939;49.246;9.106;2024-03-22T02:38:22;16.53;;;8.23;;
19585;SDS011;9939;49.246;9.106;2024-03-22T02:40:51;14.77;;;7.73;;
19585;SDS011;9939;49.246;9.106;2024-03-22T02:43:18;13.07;;;7.57;;
19585;SDS011;9939;49.246;9.106;2024-03-22T02:45:44;13.50;;;7.83;;
19585;SDS011;9939;49.246;9.106;2024-03-22T02:48:11;13.07;;;7.80;;
19585;SDS011;9939;49.246;9.106;2024-03-22T02:50:37;14.40;;;7.30;;
19585;SDS011;9939;49.246;9.106;2024-03-22T02:53:04;16.17;;;7.70;;
19585;SDS011;9939;49.246;9.106;2024-03-22T02:55:30;14.70;;;8.40;;
19585;SDS011;9939;49.246;9.106;2024-03-22T02:58:03;17.53;;;8.90;;
19585;SDS011;9939;49.246;9.106;2024-03-22T03:00:30;14.87;;;8.23;;
19585;SDS011;9939;49.246;9.106;2024-03-22T03:02:56;14.50;;;8.00;;
19585;SDS011;9939;49.246;9.106;2024-03-22T03:05:22;16.00;;;8.47;;
19585;SDS011;9939;49.246;9.106;2024-03-22T03:07:49;14.77;;;7.33;;
19585;SDS011;9939;49.246;9.106;2024-03-22T03:10:16;14.97;;;8.33;;
19585;SDS011;9939;49.246;9.106;2024-03-22T03:12:42;14.13;;;8.00;;
19585;SDS011;9939;49.246;9.106;2024-03-22T03:15:08;14.57;;;8.13;;
19585;SDS011;9939;49.246;9.106;2024-03-22T03:17:34;11.50;;;7.07;;
19585;SDS011;9939;49.246;9.106;2024-03-22T03:20:00;13.57;;;7.73;;
19585;SDS011;9939;49.246;9.106;2024-03-22T03:22:26;13.93;;;7.20;;
19585;SDS011;9939;49.246;9.106;2024-03-22T03:24:52;13.10;;;7.23;;
19585;SDS011;9939;49.246;9.106;2024-03-22T03:27:18;16.40;;;7.87;;
19585;SDS011;9939;49.246;9.106;2024-03-22T03:29:44;13.03;;;8.00;;
19585;SDS011;9939;49.246;9.106;2024-03-22T03:32:10;14.13;;;8.37;;
19585;SDS011;9939;49.246;9.106;2024-03-22T03:34:36;15.03;;;8.30;;
19585;SDS011;9939;49.246;9.106;2024-03-22T03:37:02;13.33;;;7.80;;
19585;SDS011;9939;49.246;9.106;2024-03-22T03:39:28;15.10;;;8.40;;
19585;SDS011;9939;49.246;9.106;2024-03-22T03:41:54;15.20;;;8.87;;
19585;SDS011;9939;49.246;9.106;2024-03-22T03:44:21;15.83;;;8.70;;
19585;SDS011;9939;49.246;9.106;2024-03-22T03:46:47;14.70;;;7.87;;
19585;SDS011;9939;49.246;9.106;2024-03-22T03:49:13;16.53;;;8.37;;
19585;SDS011;9939;49.246;9.106;2024-03-22T03:51:39;14.57;;;8.70;;
19585;SDS011;9939;49.246;9.106;2024-03-22T03:54:05;13.90;;;7.93;;
19585;SDS011;9939;49.246;9.106;2024-03-22T03:56:31;16.27;;;8.77;;
19585;SDS011;9939;49.246;9.106;2024-03-22T03:58:57;14.23;;;8.37;;
19585;SDS011;9939;49.246;9.106;2024-03-22T04:01:23;14.13;;;8.17;;
19585;SDS011;9939;49.246;9.106;2024-03-22T04:03:49;13.80;;;8.73;;
19585;SDS011;9939;49.246;9.106;2024-03-22T04:06:15;13.23;;;7.50;;
19585;SDS011;9939;49.246;9.106;2024-03-22T04:08:42;15.07;;;8.50;;
19585;SDS011;9939;49.246;9.106;2024-03-22T04:11:09;14.57;;;7.47;;
19585;SDS011;9939;49.246;9.106;2024-03-22T04:13:35;13.63;;;7.63;;
19585;SDS011;9939;49.246;9.106;2024-03-22T04:16:01;14.43;;;8.20;;
19585;SDS011;9939;49.246;9.106;2024-03-22T04:18:27;11.73;;;7.30;;
19585;SDS011;9939;49.246;9.106;2024-03-22T04:20:53;15.10;;;8.33;;
19585;SDS011;9939;49.246;9.106;2024-03-22T04:23:20;15.20;;;7.67;;
19585;SDS011;9939;49.246;9.106;2024-03-22T04:26:00;14.30;;;8.60;;
19585;SDS011;9939;49.246;9.106;2024-03-22T04:28:27;13.73;;;8.43;;
19585;SDS011;9939;49.246;9.106;2024-03-22T04:33:27;14.00;;;8.67;;
19585;SDS011;9939;49.246;9.106;2024-03-22T04:35:53;13.17;;;8.13;;
19585;SDS011;9939;49.246;9.106;2024-03-22T04:38:20;13.53;;;8.00;;
19585;SDS011;9939;49.246;9.106;2024-03-22T04:40:46;13.43;;;8.13;;
19585;SDS011;9939;49.246;9.106;2024-03-22T04:43:12;14.43;;;8.60;;
19585;SDS011;9939;49.246;9.106;2024-03-22T04:45:38;13.77;;;8.00;;
19585;SDS011;9939;49.246;9.106;2024-03-22T04:48:04;14.80;;;8.00;;
19585;SDS011;9939;49.246;9.106;2024-03-22T04:50:30;12.30;;;7.90;;
19585;SDS011;9939;49.246;9.106;2024-03-22T04:52:57;16.43;;;8.60;;
19585;SDS011;9939;49.246;9.106;2024-03-22T04:55:23;13.23;;;8.63;;
19585;SDS011;9939;49.246;9.106;2024-03-22T04:57:49;13.50;;;8.10;;
19585;SDS011;9939;49.246;9.106;2024-03-22T05:00:17;12.87;;;7.63;;
19585;SDS011;9939;49.246;9.106;2024-03-22T05:02:43;14.10;;;8.37;;
19585;SDS011;9939;49.246;9.106;2024-03-22T05:05:09;13.77;;;7.60;;
19585;SDS011;9939;49.246;9.106;2024-03-22T05:07:35;12.57;;;7.90;;
19585;SDS011;9939;49.246;9.106;2024-03-22T05:10:01;12.40;;;8.03;;
19585;SDS011;9939;49.246;9.106;2024-03-22T05:12:28;13.10;;;7.43;;
19585;SDS011;9939;49.246;9.106;2024-03-22T05:14:55;12.67;;;7.47;;
19585;SDS011;9939;49.246;9.106;2024-03-22T05:17:21;12.90;;;6.70;;
19585;SDS011;9939;49.246;9.106;2024-03-22T05:19:47;12.27;;;7.03;;
19585;SDS011;9939;49.246;9.106;2024-03-22T05:22:13;14.10;;;6.93;;
19585;SDS011;9939;49.246;9.106;2024-03-22T05:24:39;11.10;;;6.63;;
19585;SDS011;9939;49.246;9.106;2024-03-22T05:27:05;12.93;;;7.47;;
19585;SDS011;9939;49.246;9.106;2024-03-22T05:29:31;11.93;;;6.47;;
19585;SDS011;9939;49.246;9.106;2024-03-22T05:31:56;11.40;;;6.10;;
19585;SDS011;9939;49.246;9.106;2024-03-22T05:34:23;12.23;;;7.57;;
19585;SDS011;9939;49.246;9.106;2024-03-22T05:36:49;13.17;;;7.20;;
19585;SDS011;9939;49.246;9.106;2024-03-22T05:39:15;11.87;;;7.60;;
19585;SDS011;9939;49.246;9.106;2024-03-22T05:41:41;12.23;;;8.20;;
19585;SDS011;9939;49.246;9.106;2024-03-22T05:44:07;14.60;;;7.77;;
19585;SDS011;9939;49.246;9.106;2024-03-22T05:46:33;13.37;;;8.40;;
19585;SDS011;9939;49.246;9.106;2024-03-22T05:49:00;17.00;;;8.20;;
19585;SDS011;9939;49.246;9.106;2024-03-22T05:51:26;13.70;;;8.53;;
19585;SDS011;9939;49.246;9.106;2024-03-22T05:53:52;16.87;;;8.30;;
19585;SDS011;9939;49.246;9.106;2024-03-22T05:56:18;12.20;;;7.57;;
19585;SDS011;9939;49.246;9.106;2024-03-22T05:58:44;12.50;;;7.57;;
19585;SDS011;9939;49.246;9.106;2024-03-22T06:01:11;13.17;;;8.57;;
19585;SDS011;9939;49.246;9.106;2024-03-22T06:03:36;12.80;;;7.60;;
19585;SDS011;9939;49.246;9.106;2024-03-22T06:06:03;12.50;;;7.67;;
19585;SDS011;9939;49.246;9.106;2024-03-22T06:08:29;15.13;;;7.63;;
19585;SDS011;9939;49.246;9.106;2024-03-22T06:10:57;14.60;;;7.77;;
19585;SDS011;9939;49.246;9.106;2024-03-22T06:13:23;12.57;;;7.40;;
19585;SDS011;9939;49.246;9.106;2024-03-22T06:15:49;12.90;;;7.17;;
19585;SDS011;9939;49.246;9.106;2024-03-22T06:18:15;16.83;;;9.07;;
19585;SDS011;9939;49.246;9.106;2024-03-22T06:20:42;13.73;;;7.87;;
19585;SDS011;9939;49.246;9.106;2024-03-22T06:23:09;12.97;;;7.83;;
19585;SDS011;9939;49.246;9.106;2024-03-22T06:25:35;12.67;;;6.90;;
19585;SDS011;9939;49.246;9.106;2024-03-22T06:28:01;12.37;;;7.30;;
19585;SDS011;9939;49.246;9.106;2024-03-22T06:30:27;11.30;;;6.67;;
19585;SDS011;9939;49.246;9.106;2024-03-22T06:32:53;10.87;;;6.33;;
19585;SDS011;9939;49.246;9.106;2024-03-22T06:35:22;14.07;;;6.63;;
19585;SDS011;9939;49.246;9.106;2024-03-22T06:37:48;12.07;;;6.97;;
19585;SDS011;9939;49.246;9.106;2024-03-22T06:40:14;11.83;;;7.40;;
19585;SDS011;9939;49.246;9.106;2024-03-22T06:42:41;15.03;;;7.67;;
19585;SDS011;9939;49.246;9.106;2024-03-22T06:45:07;13.80;;;8.53;;
19585;SDS011;9939;49.246;9.106;2024-03-22T06:47:34;14.57;;;8.67;;
19585;SDS011;9939;49.246;9.106;2024-03-22T06:50:00;15.37;;;8.20;;
19585;SDS011;9939;49.246;9.106;2024-03-22T06:52:26;14.73;;;8.63;;
19585;SDS011;9939;49.246;9.106;2024-03-22T06:54:52;14.10;;;7.80;;
19585;SDS011;9939;49.246;9.106;2024-03-22T06:57:18;13.53;;;7.97;;
19585;SDS011;9939;49.246;9.106;2024-03-22T06:59:44;13.40;;;9.13;;
19585;SDS011;9939;49.246;9.106;2024-03-22T07:02:10;15.40;;;8.73;;
19585;SDS011;9939;49.246;9.106;2024-03-22T07:04:38;13.60;;;8.60;;
19585;SDS011;9939;49.246;9.106;2024-03-22T07:07:04;17.60;;;8.77;;
19585;SDS011;9939;49.246;9.106;2024-03-22T07:09:32;15.77;;;8.53;;
19585;SDS011;9939;49.246;9.106;2024-03-22T07:11:59;17.07;;;9.73;;
19585;SDS011;9939;49.246;9.106;2024-03-22T07:14:24;19.10;;;8.87;;
19585;SDS011;9939;49.246;9.106;2024-03-22T07:16:51;20.03;;;9.10;;
19585;SDS011;9939;49.246;9.106;2024-03-22T07:19:22;15.30;;;9.40;;
19585;SDS011;9939;49.246;9.106;2024-03-22T07:21:48;14.53;;;9.30;;
19585;SDS011;9939;49.246;9.106;2024-03-22T07:24:14;16.23;;;10.33;;
19585;SDS011;9939;49.246;9.106;2024-03-22T07:26:40;17.07;;;9.73;;
19585;SDS011;9939;49.246;9.106;2024-03-22T07:29:06;17.17;;;10.33;;
19585;SDS011;9939;49.246;9.106;2024-03-22T07:31:32;16.87;;;10.93;;
19585;SDS011;9939;49.246;9.106;2024-03-22T07:33:58;17.63;;;11.60;;
19585;SDS011;9939;49.246;9.106;2024-03-22T07:36:24;20.27;;;11.30;;
19585;SDS011;9939;49.246;9.106;2024-03-22T07:38:52;17.87;;;11.27;;
19585;SDS011;9939;49.246;9.106;2024-03-22T07:41:18;16.80;;;10.57;;
19585;SDS011;9939;49.246;9.106;2024-03-22T07:43:44;21.93;;;12.10;;
19585;SDS011;9939;49.246;9.106;2024-03-22T07:46:10;18.57;;;11.43;;
19585;SDS011;9939;49.246;9.106;2024-03-22T07:48:37;17.07;;;11.47;;
19585;SDS011;9939;49.246;9.106;2024-03-22T07:51:03;18.00;;;11.67;;
19585;SDS011;9939;49.246;9.106;2024-03-22T07:53:29;15.83;;;10.80;;
19585;SDS011;9939;49.246;9.106;2024-03-22T07:55:55;20.43;;;11.63;;
19585;SDS011;9939;49.246;9.106;2024-03-22T07:58:21;18.57;;;10.87;;
19585;SDS011;9939;49.246;9.106;2024-03-22T08:00:47;18.33;;;10.90;;
19585;SDS011;9939;49.246;9.106;2024-03-22T08:03:16;18.97;;;11.50;;
19585;SDS011;9939;49.246;9.106;2024-03-22T08:05:42;19.57;;;10.80;;
19585;SDS011;9939;49.246;9.106;2024-03-22T08:08:08;19.37;;;11.20;;
19585;SDS011;9939;49.246;9.106;2024-03-22T08:10:35;15.83;;;10.80;;
19585;SDS011;9939;49.246;9.106;2024-03-22T08:13:01;18.47;;;10.57;;
19585;SDS011;9939;49.246;9.106;2024-03-22T08:15:27;20.10;;;10.13;;
19585;SDS011;9939;49.246;9.106;2024-03-22T08:17:53;17.27;;;9.17;;
19585;SDS011;9939;49.246;9.106;2024-03-22T08:20:19;16.87;;;9.33;;
19585;SDS011;9939;49.246;9.106;2024-03-22T08:22:45;12.67;;;8.47;;
19585;SDS011;9939;49.246;9.106;2024-03-22T08:25:11;17.03;;;9.50;;
19585;SDS011;9939;49.246;9.106;2024-03-22T08:27:37;14.70;;;9.83;;
19585;SDS011;9939;49.246;9.106;2024-03-22T08:30:03;13.07;;;8.47;;
19585;SDS011;9939;49.246;9.106;2024-03-22T08:32:30;14.33;;;9.90;;
19585;SDS011;9939;49.246;9.106;2024-03-22T08:34:56;15.70;;;9.63;;
19585;SDS011;9939;49.246;9.106;2024-03-22T08:37:22;12.47;;;8.53;;
19585;SDS011;9939;49.246;9.106;2024-03-22T08:39:48;13.30;;;8.03;;
19585;SDS011;9939;49.246;9.106;2024-03-22T08:42:14;12.87;;;7.87;;
19585;SDS011;9939;49.246;9.106;2024-03-22T08:44:40;13.70;;;8.07;;
19585;SDS011;9939;49.246;9.106;2024-03-22T08:47:06;13.43;;;8.37;;
19585;SDS011;9939;49.246;9.106;2024-03-22T08:49:32;12.20;;;8.90;;
19585;SDS011;9939;49.246;9.106;2024-03-22T08:51:58;11.87;;;7.93;;
19585;SDS011;9939;49.246;9.106;2024-03-22T08:54:24;10.90;;;7.73;;
19585;SDS011;9939;49.246;9.106;2024-03-22T08:56:50;13.13;;;8.73;;
19585;SDS011;9939;49.246;9.106;2024-03-22T08:59:16;14.40;;;8.23;;
19585;SDS011;9939;49.246;9.106;2024-03-22T09:01:42;12.70;;;7.60;;
19585;SDS011;9939;49.246;9.106;2024-03-22T09:04:08;11.60;;;8.03;;
19585;SDS011;9939;49.246;9.106;2024-03-22T09:06:33;11.53;;;7.30;;
19585;SDS011;9939;49.246;9.106;2024-03-22T09:08:59;12.10;;;7.47;;
19585;SDS011;9939;49.246;9.106;2024-03-22T09:11:25;12.60;;;7.20;;
19585;SDS011;9939;49.246;9.106;2024-03-22T09:13:52;9.77;;;6.40;;
19585;SDS011;9939;49.246;9.106;2024-03-22T09:16:23;15.73;;;7.50;;
19585;SDS011;9939;49.246;9.106;2024-03-22T09:18:49;12.03;;;7.07;;
19585;SDS011;9939;49.246;9.106;2024-03-22T09:21:15;13.67;;;7.20;;
19585;SDS011;9939;49.246;9.106;2024-03-22T09:23:41;13.50;;;6.93;;
19585;SDS011;9939;49.246;9.106;2024-03-22T09:26:07;10.63;;;6.87;;
19585;SDS011;9939;49.246;9.106;2024-03-22T09:28:33;11.27;;;6.43;;
19585;SDS011;9939;49.246;9.106;2024-03-22T09:31:06;12.93;;;6.87;;
19585;SDS011;9939;49.246;9.106;2024-03-22T09:33:33;12.53;;;6.80;;
19585;SDS011;9939;49.246;9.106;2024-03-22T09:35:59;12.33;;;6.23;;
19585;SDS011;9939;49.246;9.106;2024-03-22T09:38:25;13.43;;;6.43;;
19585;SDS011;9939;49.246;9.106;2024-03-22T09:40:51;11.43;;;6.30;;
19585;SDS011;9939;49.246;9.106;2024-03-22T09:43:23;11.67;;;6.83;;
19585;SDS011;9939;49.246;9.106;2024-03-22T09:45:52;12.87;;;7.63;;
19585;SDS011;9939;49.246;9.106;2024-03-22T09:48:20;14.27;;;6.90;;
19585;SDS011;9939;49.246;9.106;2024-03-22T09:50:47;12.00;;;7.13;;
19585;SDS011;9939;49.246;9.106;2024-03-22T09:53:20;11.13;;;7.00;;
19585;SDS011;9939;49.246;9.106;2024-03-22T09:55:48;11.50;;;6.70;;
19585;SDS011;9939;49.246;9.106;2024-03-22T09:58:15;10.50;;;6.63;;
19585;SDS011;9939;49.246;9.106;2024-03-22T10:00:42;11.70;;;6.70;;
19585;SDS011;9939;49.246;9.106;2024-03-22T10:03:09;12.77;;;7.27;;
19585;SDS011;9939;49.246;9.106;2024-03-22T10:05:36;12.20;;;7.03;;
19585;SDS011;9939;49.246;9.106;2024-03-22T10:08:03;12.43;;;7.37;;
19585;SDS011;9939;49.246;9.106;2024-03-22T10:10:31;12.17;;;7.57;;
19585;SDS011;9939;49.246;9.106;2024-03-22T10:13:00;13.90;;;7.10;;
19585;SDS011;9939;49.246;9.106;2024-03-22T10:15:27;12.57;;;7.80;;
19585;SDS011;9939;49.246;9.106;2024-03-22T10:17:53;17.37;;;7.67;;
19585;SDS011;9939;49.246;9.106;2024-03-22T10:20:22;12.37;;;6.83;;
19585;SDS011;9939;49.246;9.106;2024-03-22T10:23:09;13.73;;;7.60;;
19585;SDS011;9939;49.246;9.106;2024-03-22T10:25:34;13.67;;;7.63;;
19585;SDS011;9939;49.246;9.106;2024-03-22T10:28:01;13.57;;;7.77;;
19585;SDS011;9939;49.246;9.106;2024-03-22T10:30:28;11.83;;;7.77;;
19585;SDS011;9939;49.246;9.106;2024-03-22T10:32:54;11.60;;;7.47;;
19585;SDS011;9939;49.246;9.106;2024-03-22T10:35:23;11.43;;;6.40;;
19585;SDS011;9939;49.246;9.106;2024-03-22T10:37:50;9.90;;;7.07;;
19585;SDS011;9939;49.246;9.106;2024-03-22T10:40:17;9.60;;;7.17;;
19585;SDS011;9939;49.246;9.106;2024-03-22T10:42:45;11.37;;;7.20;;
19585;SDS011;9939;49.246;9.106;2024-03-22T10:45:12;11.10;;;7.10;;
19585;SDS011;9939;49.246;9.106;2024-03-22T10:47:38;11.60;;;6.97;;
19585;SDS011;9939;49.246;9.106;2024-03-22T10:50:05;11.30;;;7.10;;
19585;SDS011;9939;49.246;9.106;2024-03-22T10:55:10;11.90;;;6.77;;
19585;SDS011;9939;49.246;9.106;2024-03-22T10:57:44;12.30;;;7.20;;
19585;SDS011;9939;49.246;9.106;2024-03-22T11:00:11;10.33;;;7.40;;
19585;SDS011;9939;49.246;9.106;2024-03-22T11:02:37;13.85;;;8.48;;
19585;SDS011;9939;49.246;9.106;2024-03-22T11:05:04;12.57;;;7.13;;
19585;SDS011;9939;49.246;9.106;2024-03-22T11:07:31;10.90;;;6.70;;
19585;SDS011;9939;49.246;9.106;2024-03-22T11:09:57;8.93;;;4.87;;
19585;SDS011;9939;49.246;9.106;2024-03-22T11:12:26;8.37;;;5.10;;
19585;SDS011;9939;49.246;9.106;2024-03-22T11:14:53;11.63;;;5.50;;
19585;SDS011;9939;49.246;9.106;2024-03-22T11:17:20;9.40;;;5.00;;
19585;SDS011;9939;49.246;9.106;2024-03-22T11:19:50;10.57;;;4.50;;
19585;SDS011;9939;49.246;9.106;2024-03-22T11:22:17;7.47;;;4.90;;
19585;SDS011;9939;49.246;9.106;2024-03-22T11:24:43;10.60;;;5.67;;
19585;SDS011;9939;49.246;9.106;2024-03-22T11:27:10;10.63;;;5.30;;
19585;SDS011;9939;49.246;9.106;2024-03-22T11:29:38;9.37;;;4.90;;
19585;SDS011;9939;49.246;9.106;2024-03-22T11:32:06;8.37;;;5.20;;
19585;SDS011;9939;49.246;9.106;2024-03-22T11:34:34;12.20;;;5.80;;
19585;SDS011;9939;49.246;9.106;2024-03-22T11:37:01;9.13;;;5.33;;
19585;SDS011;9939;49.246;9.106;2024-03-22T11:39:28;10.57;;;5.83;;
19585;SDS011;9939;49.246;9.106;2024-03-22T11:41:54;9.73;;;5.70;;
19585;SDS011;9939;49.246;9.106;2024-03-22T11:44:21;10.13;;;6.70;;
19585;SDS011;9939;49.246;9.106;2024-03-22T11:46:51;10.10;;;6.30;;
19585;SDS011;9939;49.246;9.106;2024-03-22T11:49:17;11.43;;;5.87;;
19585;SDS011;9939;49.246;9.106;2024-03-22T11:51:44;10.87;;;5.53;;
19585;SDS011;9939;49.246;9.106;2024-03-22T11:54:11;10.17;;;5.60;;
19585;SDS011;9939;49.246;9.106;2024-03-22T11:56:37;10.00;;;5.97;;
19585;SDS011;9939;49.246;9.106;2024-03-22T11:59:05;10.20;;;5.80;;
19585;SDS011;9939;49.246;9.106;2024-03-22T12:01:32;12.83;;;6.33;;
19585;SDS011;9939;49.246;9.106;2024-03-22T12:03:58;11.37;;;6.30;;
19585;SDS011;9939;49.246;9.106;2024-03-22T12:06:24;9.57;;;6.37;;
19585;SDS011;9939;49.246;9.106;2024-03-22T12:08:50;12.13;;;6.47;;
19585;SDS011;9939;49.246;9.106;2024-03-22T12:11:16;10.73;;;6.13;;
19585;SDS011;9939;49.246;9.106;2024-03-22T12:13:42;10.97;;;6.47;;
19585;SDS011;9939;49.246;9.106;2024-03-22T12:16:08;9.40;;;6.10;;
19585;SDS011;9939;49.246;9.106;2024-03-22T12:18:34;12.13;;;6.20;;
19585;SDS011;9939;49.246;9.106;2024-03-22T12:21:01;10.93;;;5.77;;
19585;SDS011;9939;49.246;9.106;2024-03-22T12:23:27;10.63;;;6.07;;
19585;SDS011;9939;49.246;9.106;2024-03-22T12:25:53;11.97;;;6.03;;
19585;SDS011;9939;49.246;9.106;2024-03-22T12:28:20;10.37;;;6.13;;
19585;SDS011;9939;49.246;9.106;2024-03-22T12:30:47;10.50;;;6.10;;
19585;SDS011;9939;49.246;9.106;2024-03-22T12:33:15;11.70;;;6.00;;
19585;SDS011;9939;49.246;9.106;2024-03-22T12:35:41;9.73;;;6.00;;
19585;SDS011;9939;49.246;9.106;2024-03-22T12:38:08;12.03;;;5.53;;
19585;SDS011;9939;49.246;9.106;2024-03-22T12:40:39;10.37;;;6.10;;
19585;SDS011;9939;49.246;9.106;2024-03-22T12:43:05;10.43;;;5.83;;
19585;SDS011;9939;49.246;9.106;2024-03-22T12:45:33;11.37;;;6.17;;
19585;SDS011;9939;49.246;9.106;2024-03-22T12:47:59;13.00;;;5.60;;
19585;SDS011;9939;49.246;9.106;2024-03-22T12:50:26;10.07;;;5.47;;
19585;SDS011;9939;49.246;9.106;2024-03-22T12:52:52;10.37;;;6.07;;
19585;SDS011;9939;49.246;9.106;2024-03-22T12:55:18;9.27;;;5.97;;
19585;SDS011;9939;49.246;9.106;2024-03-22T12:57:45;9.50;;;5.43;;
19585;SDS011;9939;49.246;9.106;2024-03-22T13:00:11;10.30;;;4.63;;
19585;SDS011;9939;49.246;9.106;2024-03-22T13:02:46;8.53;;;4.50;;
19585;SDS011;9939;49.246;9.106;2024-03-22T13:05:13;8.63;;;4.67;;
19585;SDS011;9939;49.246;9.106;2024-03-22T13:07:41;10.30;;;4.70;;
19585;SDS011;9939;49.246;9.106;2024-03-22T13:10:07;7.63;;;4.23;;
19585;SDS011;9939;49.246;9.106;2024-03-22T13:12:34;8.77;;;4.37;;
19585;SDS011;9939;49.246;9.106;2024-03-22T13:15:00;8.50;;;4.80;;
19585;SDS011;9939;49.246;9.106;2024-03-22T13:17:27;11.20;;;4.60;;
19585;SDS011;9939;49.246;9.106;2024-03-22T13:19:53;9.33;;;4.60;;
19585;SDS011;9939;49.246;9.106;2024-03-22T13:22:19;8.83;;;4.73;;
19585;SDS011;9939;49.246;9.106;2024-03-22T13:24:46;10.70;;;4.27;;
19585;SDS011;9939;49.246;9.106;2024-03-22T13:27:12;10.17;;;4.57;;
19585;SDS011;9939;49.246;9.106;2024-03-22T13:29:42;8.63;;;4.37;;
19585;SDS011;9939;49.246;9.106;2024-03-22T13:32:08;8.37;;;3.77;;
19585;SDS011;9939;49.246;9.106;2024-03-22T13:34:34;8.73;;;4.43;;
19585;SDS011;9939;49.246;9.106;2024-03-22T13:37:01;8.10;;;4.03;;
19585;SDS011;9939;49.246;9.106;2024-03-22T13:39:27;8.27;;;3.90;;
19585;SDS011;9939;49.246;9.106;2024-03-22T13:41:56;8.77;;;4.10;;
19585;SDS011;9939;49.246;9.106;2024-03-22T13:44:22;7.43;;;4.33;;
19585;SDS011;9939;49.246;9.106;2024-03-22T13:46:49;10.87;;;4.20;;
19585;SDS011;9939;49.246;9.106;2024-03-22T13:49:16;8.53;;;4.20;;
19585;SDS011;9939;49.246;9.106;2024-03-22T13:51:43;9.23;;;4.53;;
19585;SDS011;9939;49.246;9.106;2024-03-22T13:54:10;8.73;;;4.60;;
19585;SDS011;9939;49.246;9.106;2024-03-22T13:56:37;7.43;;;3.90;;
19585;SDS011;9939;49.246;9.106;2024-03-22T13:59:06;10.03;;;4.27;;
19585;SDS011;9939;49.246;9.106;2024-03-22T14:01:35;8.30;;;4.40;;
19585;SDS011;9939;49.246;9.106;2024-03-22T14:04:02;7.10;;;4.30;;
19585;SDS011;9939;49.246;9.106;2024-03-22T14:06:30;9.93;;;4.27;;
19585;SDS011;9939;49.246;9.106;2024-03-22T14:08:56;11.70;;;5.10;;
19585;SDS011;9939;49.246;9.106;2024-03-22T14:11:29;9.90;;;4.93;;
19585;SDS011;9939;49.246;9.106;2024-03-22T14:13:56;7.40;;;4.33;;
19585;SDS011;9939;49.246;9.106;2024-03-22T14:16:22;8.47;;;4.80;;
19585;SDS011;9939;49.246;9.106;2024-03-22T14:18:49;12.03;;;4.77;;
19585;SDS011;9939;49.246;9.106;2024-03-22T14:21:15;10.93;;;5.43;;
19585;SDS011;9939;49.246;9.106;2024-03-22T14:23:48;8.97;;;4.90;;
19585;SDS011;9939;49.246;9.106;2024-03-22T14:26:15;9.20;;;4.47;;
19585;SDS011;9939;49.246;9.106;2024-03-22T14:28:42;9.07;;;4.60;;
19585;SDS011;9939;49.246;9.106;2024-03-22T14:31:09;8.50;;;4.70;;
19585;SDS011;9939;49.246;9.106;2024-03-22T14:33:35;9.10;;;4.35;;
19585;SDS011;9939;49.246;9.106;2024-03-22T14:36:02;9.47;;;4.13;;
19585;SDS011;9939;49.246;9.106;2024-03-22T14:38:29;8.37;;;4.37;;
19585;SDS011;9939;49.246;9.106;2024-03-22T14:40:55;6.53;;;3.67;;
19585;SDS011;9939;49.246;9.106;2024-03-22T14:43:22;9.37;;;4.30;;
19585;SDS011;9939;49.246;9.106;2024-03-22T14:45:50;6.77;;;4.30;;
19585;SDS011;9939;49.246;9.106;2024-03-22T14:48:19;7.63;;;4.17;;
19585;SDS011;9939;49.246;9.106;2024-03-22T14:50:46;10.70;;;4.87;;